Time;durP1;ratioP1;P1;durP2;ratioP2;P2;SDS_P1;SDS_P2;PMS_P1;PMS_P2;Temp;Humidity;BMP_temperature;BMP_pressure;BME280_temperature;BME280_humidity;BME280_pressure;Samples;Min_cycle;Max_cycle;Signal;HPM_P1;HPM_P2
2022/03/13 00:00:18;;;;;;;;;;;8.10;99.90;;;;;;5069254;28;20075;-71
2022/03/13 00:02:46;;;;;;;22.33;11.40;;;8.10;99.90;;;;;;5066204;28;20030;-71
2022/03/13 00:05:16;;;;;;;22.15;10.88;;;8.10;99.90;;;;;;5085510;28;20480;-70
2022/03/13 00:07:43;;;;;;;19.30;11.68;;;8.10;99.90;;;;;;5085165;28;20050;-71
2022/03/13 00:10:10;;;;;;;18.50;10.90;;;8.10;99.90;;;;;;5088499;28;20066;-71
2022/03/13 00:12:35;;;;;;;;;;;8.10;99.90;;;;;;5062099;28;20641;-71
2022/03/13 00:15:12;;;;;;;19.02;10.80;;;8.10;99.90;;;;;;5104377;22;19923;-80
2022/03/13 00:17:38;;;;;;;17.55;10.25;;;8.00;99.90;;;;;;5073422;27;20086;-80
2022/03/13 00:20:05;;;;;;;18.90;10.95;;;8.00;99.90;;;;;;5063412;28;20286;-80
2022/03/13 00:22:33;;;;;;;20.33;11.02;;;8.00;99.90;;;;;;5055748;28;20138;-79
2022/03/13 00:25:00;;;;;;;22.55;11.90;;;8.00;99.90;;;;;;5050886;28;20044;-80
2022/03/13 00:27:30;;;;;;;21.13;12.55;;;8.10;99.90;;;;;;5043305;28;20547;-80
2022/03/13 00:29:56;;;;;;;20.70;11.60;;;8.00;99.90;;;;;;5001511;28;20630;-78
2022/03/13 00:32:22;;;;;;;23.75;13.23;;;8.00;99.90;;;;;;4957449;28;20286;-78
2022/03/13 00:35:32;;;;;;;27.25;13.63;;;8.00;99.90;;;;;;4955270;28;20469;-78
2022/03/13 00:38:37;;;;;;;23.63;12.38;;;8.00;99.90;;;;;;4939080;28;20381;-78
2022/03/13 00:41:38;;;;;;;21.20;11.30;;;8.00;99.90;;;;;;4933834;28;20342;-78
2022/03/13 00:48:12;;;;;;;;;;;;;;;;;;;;;
2022/03/13 00:51:35;;;;;;;;;;;;;;;;;;;;;
2022/03/13 00:54:46;;;;;;;;;;;;;;;;;;;;;
2022/03/13 01:04:56;;;;;;;21.98;11.98;;;7.80;99.90;;;;;;4855093;29;20432;-80
2022/03/13 01:08:09;;;;;;;;;;;;;;;;;;;;;
2022/03/13 01:11:33;;;;;;;30.73;12.85;;;7.80;99.90;;;;;;4893905;28;20465;-79
2022/03/13 01:14:35;;;;;;;19.88;11.52;;;7.70;99.90;;;;;;4881524;28;20762;-80
2022/03/13 01:17:44;;;;;;;23.08;10.85;;;7.80;99.90;;;;;;4953772;28;20773;-79
2022/03/13 01:21:11;;;;;;;;;;;;;;;;;;;;;
2022/03/13 01:24:09;;;;;;;20.13;11.45;;;7.70;99.90;;;;;;4888463;28;20477;-79
2022/03/13 01:27:06;;;;;;;20.58;10.73;;;7.80;99.90;;;;;;4943676;28;20354;-79
2022/03/13 01:29:41;;;;;;;21.38;10.43;;;7.90;99.90;;;;;;4958975;28;20325;-79
2022/03/13 01:32:19;;;;;;;19.48;11.35;;;7.80;99.90;;;;;;4962827;28;20970;-78
2022/03/13 01:34:54;;;;;;;19.02;11.23;;;7.90;99.90;;;;;;4970066;28;20301;-80
2022/03/13 01:38:00;;;;;;;22.15;11.23;;;7.90;99.90;;;;;;4945946;28;20304;-80
2022/03/13 01:40:59;;;;;;;18.02;10.43;;;7.90;99.90;;;;;;4935897;28;20710;-80
2022/03/13 01:43:47;;;;;;;22.63;11.38;;;8.00;99.90;;;;;;4938980;28;20504;-79
2022/03/13 01:46:17;;;;;;;17.48;10.52;;;8.00;99.90;;;;;;4943264;28;20412;-80
2022/03/13 01:49:22;;;;;;;19.75;11.63;;;8.00;99.90;;;;;;4947644;28;20450;-82
2022/03/13 01:51:57;;;;;;;22.13;11.73;;;8.10;99.90;;;;;;4887908;28;20875;-80
2022/03/13 01:54:40;;;;;;;;;;;;;;;;;;;;;
2022/03/13 02:01:20;;;;;;;20.95;11.50;;;8.10;99.90;;;;;;4887191;28;20991;-80
2022/03/13 02:04:49;;;;;;;21.13;11.13;;;8.10;99.90;;;;;;4934938;28;20215;-80
2022/03/13 02:07:32;;;;;;;21.02;11.63;;;8.10;99.90;;;;;;4835062;28;20225;-80
2022/03/13 02:10:12;;;;;;;;;;;;;;;;;;;;;
2022/03/13 02:12:39;;;;;;;25.90;11.45;;;8.10;99.90;;;;;;5010395;28;20123;-80
2022/03/13 02:15:07;;;;;;;21.75;11.75;;;8.20;99.90;;;;;;5060436;28;20066;-81
2022/03/13 02:17:34;;;;;;;25.17;11.05;;;8.20;99.90;;;;;;5061544;28;20081;-80
2022/03/13 02:20:04;;;;;;;19.40;11.13;;;8.20;99.90;;;;;;5072499;28;20043;-80
2022/03/13 02:22:31;;;;;;;19.83;10.98;;;8.20;99.90;;;;;;5066248;28;20905;-80
2022/03/13 02:24:57;;;;;;;17.95;10.48;;;8.20;99.90;;;;;;5079590;28;20379;-81
2022/03/13 02:27:32;;;;;;;20.08;10.75;;;8.20;99.90;;;;;;5062451;28;20284;-81
2022/03/13 02:29:58;;;;;;;21.92;10.98;;;8.20;99.90;;;;;;5059333;28;20846;-81
2022/03/13 02:32:33;;;;;;;18.97;10.60;;;8.20;99.90;;;;;;5055458;28;20105;-82
2022/03/13 02:35:01;;;;;;;21.85;11.77;;;8.20;99.90;;;;;;5057281;28;20446;-81
2022/03/13 02:37:40;;;;;;;20.08;10.55;;;8.20;99.90;;;;;;5051637;28;20074;-81
2022/03/13 02:40:07;;;;;;;18.70;10.45;;;8.20;99.90;;;;;;5064116;28;20496;-81
2022/03/13 02:42:33;;;;;;;19.88;10.90;;;8.10;99.90;;;;;;5040931;28;20044;-81
2022/03/13 02:44:59;;;;;;;20.47;11.10;;;8.20;99.90;;;;;;5065351;28;20117;-81
2022/03/13 02:47:24;;;;;;;17.67;10.40;;;8.10;99.90;;;;;;5043124;28;20114;-80
2022/03/13 02:49:50;;;;;;;16.83;10.00;;;8.10;99.90;;;;;;5042574;28;20044;-81
2022/03/13 02:52:15;;;;;;;19.00;10.00;;;8.10;99.90;;;;;;5065731;28;20054;-80
2022/03/13 02:54:41;;;;;;;19.03;10.50;;;8.10;99.90;;;;;;5049640;28;20060;-82
2022/03/13 02:57:07;;;;;;;19.13;10.57;;;8.10;99.90;;;;;;5062638;28;20037;-82
2022/03/13 02:59:32;;;;;;;21.52;11.63;;;8.20;99.90;;;;;;5052176;28;20116;-81
2022/03/13 03:02:02;;;;;;;18.30;10.67;;;8.20;99.90;;;;;;5058950;28;20142;-80
2022/03/13 03:04:27;;;;;;;17.17;10.38;;;8.20;99.90;;;;;;5072607;28;20040;-81
2022/03/13 03:07:01;;;;;;;19.10;10.97;;;8.20;99.90;;;;;;5069434;28;20097;-82
2022/03/13 03:09:29;;;;;;;18.20;9.85;;;8.10;99.90;;;;;;5063083;28;20044;-81
2022/03/13 03:11:57;;;;;;;19.83;10.90;;;8.20;99.90;;;;;;5053011;28;20067;-79
2022/03/13 03:14:23;;;;;;;17.10;9.48;;;8.20;99.90;;;;;;5053983;28;20040;-82
2022/03/13 03:16:49;;;;;;;17.90;10.15;;;8.10;99.90;;;;;;5063947;28;20043;-82
2022/03/13 03:19:14;;;;;;;18.97;10.50;;;8.20;99.90;;;;;;5045597;28;20668;-81
2022/03/13 03:21:40;;;;;;;15.98;9.65;;;8.10;99.90;;;;;;5067233;28;20205;-80
2022/03/13 03:24:16;;;;;;;23.02;10.95;;;8.20;99.90;;;;;;5064218;28;20043;-82
2022/03/13 03:26:44;;;;;;;18.75;10.15;;;8.20;99.90;;;;;;5067468;28;20911;-80
2022/03/13 03:29:10;;;;;;;19.02;10.98;;;8.20;99.90;;;;;;5065849;28;20105;-81
2022/03/13 03:31:41;;;;;;;20.77;10.07;;;8.20;99.90;;;;;;5065772;28;20052;-81
2022/03/13 03:34:12;;;;;;;14.50;8.88;;;8.20;99.90;;;;;;5067888;28;20048;-81
2022/03/13 03:36:40;;;;;;;17.88;10.07;;;8.20;99.90;;;;;;5062223;28;20039;-81
2022/03/13 03:39:09;;;;;;;17.13;9.73;;;8.20;99.90;;;;;;5055217;28;20533;-82
2022/03/13 03:41:35;;;;;;;16.77;9.90;;;8.20;99.90;;;;;;5069108;28;20051;-81
2022/03/13 03:44:01;;;;;;;17.38;9.48;;;8.20;99.90;;;;;;5060586;28;20456;-82
2022/03/13 03:46:26;;;;;;;17.80;9.70;;;8.20;99.90;;;;;;5064179;28;20040;-82
2022/03/13 03:48:52;;;;;;;18.90;10.37;;;8.20;99.90;;;;;;5070753;28;20402;-82
2022/03/13 03:51:17;;;;;;;17.20;8.93;;;8.20;99.90;;;;;;5055117;28;20379;-83
2022/03/13 03:53:43;;;;;;;19.03;10.53;;;8.20;99.90;;;;;;5051731;28;20109;-82
2022/03/13 03:56:08;;;;;;;20.00;10.83;;;8.20;99.90;;;;;;5067705;28;20061;-82
2022/03/13 03:58:34;;;;;;;18.50;9.97;;;8.20;99.90;;;;;;5064884;28;20051;-82
2022/03/13 04:01:00;;;;;;;18.83;10.30;;;8.20;99.90;;;;;;5064100;28;20028;-81
2022/03/13 04:03:25;;;;;;;16.07;9.97;;;8.20;99.90;;;;;;5066697;28;20059;-80
2022/03/13 04:05:51;;;;;;;15.63;9.27;;;8.20;99.90;;;;;;5070735;28;20072;-82
2022/03/13 04:08:17;;;;;;;17.17;9.53;;;8.20;99.90;;;;;;5066235;28;20036;-80
2022/03/13 04:10:43;;;;;;;19.00;10.23;;;8.10;99.90;;;;;;5066756;28;20046;-82
2022/03/13 04:13:08;;;;;;;16.52;9.82;;;8.20;99.90;;;;;;5051536;28;20044;-82
2022/03/13 04:15:34;;;;;;;17.47;9.10;;;8.10;99.90;;;;;;5060639;28;20062;-82
2022/03/13 04:18:00;;;;;;;16.10;10.27;;;8.10;99.90;;;;;;5065475;28;20036;-82
2022/03/13 04:20:29;;;;;;;16.97;9.70;;;8.00;99.90;;;;;;5063002;28;20425;-82
2022/03/13 04:22:55;;;;;;;17.13;9.25;;;8.10;99.90;;;;;;5062786;28;20052;-81
2022/03/13 04:25:21;;;;;;;17.35;10.30;;;8.00;99.90;;;;;;5067741;28;20050;-81
2022/03/13 04:27:49;;;;;;;18.83;9.98;;;8.00;99.90;;;;;;5066015;28;20044;-82
2022/03/13 04:30:15;;;;;;;16.27;9.20;;;8.00;99.90;;;;;;5059815;28;20204;-82
2022/03/13 04:32:41;;;;;;;15.67;9.13;;;7.90;99.90;;;;;;5045034;28;20089;-82
2022/03/13 04:35:07;;;;;;;17.70;9.67;;;7.90;99.90;;;;;;5043174;28;20094;-82
2022/03/13 04:37:33;;;;;;;16.65;9.43;;;7.90;99.90;;;;;;5039994;28;20036;-83
2022/03/13 04:39:58;;;;;;;15.60;9.00;;;7.90;99.90;;;;;;5041348;28;20515;-82
2022/03/13 04:42:24;;;;;;;18.67;10.03;;;7.90;99.90;;;;;;5062239;28;20403;-82
2022/03/13 04:44:49;;;;;;;16.50;9.63;;;7.90;99.90;;;;;;5069191;28;20321;-83
2022/03/13 04:47:15;;;;;;;17.80;10.03;;;7.80;99.90;;;;;;5061058;28;20036;-82
2022/03/13 04:49:41;;;;;;;18.50;10.63;;;7.80;99.90;;;;;;5077951;28;20040;-81
2022/03/13 04:52:07;;;;;;;18.63;10.53;;;7.80;99.90;;;;;;5068623;28;20032;-82
2022/03/13 04:54:35;;;;;;;21.07;10.77;;;7.80;99.90;;;;;;5061948;28;20040;-82
2022/03/13 04:57:03;;;;;;;18.13;11.20;;;7.80;99.90;;;;;;5062769;28;20040;-82
2022/03/13 04:59:29;;;;;;;18.37;10.80;;;7.80;99.90;;;;;;5068744;28;20035;-83
2022/03/13 05:01:55;;;;;;;18.90;11.73;;;7.80;99.90;;;;;;5066382;28;20306;-80
2022/03/13 05:04:20;;;;;;;18.77;11.10;;;7.70;99.90;;;;;;5065635;28;20051;-82
2022/03/13 05:06:46;;;;;;;18.97;10.47;;;7.80;99.90;;;;;;5054194;28;20643;-82
2022/03/13 05:09:11;;;;;;;19.40;11.07;;;7.70;99.90;;;;;;5068181;28;20075;-81
2022/03/13 05:11:40;;;;;;;19.57;11.23;;;7.70;99.90;;;;;;5083242;28;20036;-82
2022/03/13 05:14:06;;;;;;;21.75;12.23;;;7.70;99.90;;;;;;5082205;28;20101;-82
2022/03/13 05:16:32;;;;;;;20.80;11.30;;;7.70;99.90;;;;;;5056387;28;20035;-82
2022/03/13 05:18:57;;;;;;;22.10;11.60;;;7.70;99.90;;;;;;5081810;28;20036;-82
2022/03/13 05:21:23;;;;;;;20.10;11.80;;;7.60;99.90;;;;;;5080225;28;20029;-82
2022/03/13 05:23:48;;;;;;;22.10;11.87;;;7.60;99.90;;;;;;5059466;28;20235;-82
2022/03/13 05:26:14;;;;;;;18.77;11.57;;;7.70;99.90;;;;;;5045384;28;20368;-82
2022/03/13 05:28:40;;;;;;;19.30;11.83;;;7.60;99.90;;;;;;5062330;28;20036;-82
2022/03/13 05:31:05;;;;;;;23.23;11.57;;;7.50;99.90;;;;;;5073362;28;20070;-82
2022/03/13 05:33:31;;;;;;;18.70;11.17;;;7.50;99.90;;;;;;5062692;28;20040;-82
2022/03/13 05:35:58;;;;;;;27.67;12.67;;;7.60;99.90;;;;;;5049044;28;20123;-82
2022/03/13 05:38:23;;;;;;;22.08;12.35;;;7.50;99.90;;;;;;5034457;28;20425;-82
2022/03/13 05:40:49;;;;;;;19.40;11.77;;;7.50;99.90;;;;;;5041620;28;20082;-82
2022/03/13 05:43:15;;;;;;;21.43;12.13;;;7.50;99.90;;;;;;5047140;28;20155;-82
2022/03/13 05:45:41;;;;;;;;;;;7.50;99.90;;;;;;5059189;28;20050;-82
2022/03/13 05:48:15;;;;;;;20.80;11.13;;;7.50;99.90;;;;;;5067096;28;19920;-83
2022/03/13 05:50:41;;;;;;;21.08;11.00;;;7.50;99.90;;;;;;5071079;28;20047;-82
2022/03/13 05:53:06;;;;;;;18.43;10.20;;;7.50;99.90;;;;;;5061335;28;20047;-82
2022/03/13 05:55:32;;;;;;;20.33;10.93;;;7.50;99.90;;;;;;5048914;28;20119;-82
2022/03/13 05:57:59;;;;;;;21.17;11.80;;;7.50;99.90;;;;;;5067540;28;20036;-81
2022/03/13 06:00:25;;;;;;;22.17;11.15;;;7.40;99.90;;;;;;5065579;28;20040;-79
2022/03/13 06:02:52;;;;;;;22.67;12.15;;;7.50;99.90;;;;;;5065465;28;20032;-81
2022/03/13 06:05:19;;;;;;;19.48;11.52;;;7.50;99.90;;;;;;5048121;28;20482;-83
2022/03/13 06:07:46;;;;;;;18.27;11.48;;;7.50;99.90;;;;;;5069385;28;20616;-82
2022/03/13 06:10:12;;;;;;;22.33;11.95;;;7.50;99.90;;;;;;5066282;28;20044;-81
2022/03/13 06:12:38;;;;;;;21.08;11.70;;;7.50;99.90;;;;;;5069760;28;20755;-81
2022/03/13 06:15:07;;;;;;;19.47;11.57;;;7.50;99.90;;;;;;5044539;28;20152;-85
2022/03/13 06:17:36;;;;;;;19.42;11.50;;;7.50;99.90;;;;;;5064546;28;20490;-83
2022/03/13 06:20:03;;;;;;;21.38;12.15;;;7.50;99.90;;;;;;5065369;28;20043;-81
2022/03/13 06:22:29;;;;;;;20.83;10.32;;;7.40;99.90;;;;;;5050318;28;20051;-81
2022/03/13 06:24:55;;;;;;;22.33;11.63;;;7.40;99.90;;;;;;5062696;28;20044;-83
2022/03/13 06:27:22;;;;;;;21.07;11.97;;;7.40;99.90;;;;;;5063935;28;20036;-81
2022/03/13 06:29:47;;;;;;;20.30;11.55;;;7.40;99.90;;;;;;5055733;28;20268;-83
2022/03/13 06:32:13;;;;;;;19.37;11.73;;;7.40;99.90;;;;;;5059715;28;20115;-86
2022/03/13 06:34:39;;;;;;;20.73;11.77;;;7.40;99.90;;;;;;5064702;28;20067;-83
2022/03/13 06:37:05;;;;;;;24.47;11.80;;;7.40;99.90;;;;;;5060958;28;20040;-84
2022/03/13 06:39:31;;;;;;;24.10;12.00;;;7.40;99.90;;;;;;5066821;28;20036;-84
2022/03/13 06:41:56;;;;;;;20.60;11.50;;;7.40;99.90;;;;;;5041739;28;20306;-83
2022/03/13 06:44:23;;;;;;;20.60;11.20;;;7.40;99.90;;;;;;5069918;28;20036;-84
2022/03/13 06:46:48;;;;;;;21.35;11.45;;;7.40;99.90;;;;;;5058242;28;20087;-84
2022/03/13 06:49:14;;;;;;;27.83;12.03;;;7.40;99.90;;;;;;5044366;28;20036;-82
2022/03/13 06:51:40;;;;;;;21.73;12.17;;;7.40;99.90;;;;;;5057362;28;20052;-85
2022/03/13 06:54:06;;;;;;;19.77;11.40;;;7.40;99.90;;;;;;5058872;28;20048;-84
2022/03/13 06:56:32;;;;;;;;;;;7.50;99.90;;;;;;5051526;28;20369;-83
2022/03/13 06:59:03;;;;;;;19.98;10.85;;;7.50;99.90;;;;;;5046721;28;20330;-84
2022/03/13 07:01:29;;;;;;;20.23;11.38;;;7.50;99.90;;;;;;5047375;28;20139;-82
2022/03/13 07:03:54;;;;;;;21.13;10.77;;;7.50;99.90;;;;;;5042563;28;20044;-84
2022/03/13 07:06:20;;;;;;;19.43;11.20;;;7.50;99.90;;;;;;5064161;28;20333;-84
2022/03/13 07:08:46;;;;;;;18.13;10.73;;;7.50;99.90;;;;;;5061173;28;20043;-83
2022/03/13 07:11:11;;;;;;;21.57;11.10;;;7.50;99.90;;;;;;5060223;28;20103;-86
2022/03/13 07:13:41;;;;;;;18.43;10.70;;;7.50;99.90;;;;;;5074243;28;20235;-85
2022/03/13 07:16:07;;;;;;;19.10;11.35;;;7.40;99.90;;;;;;5059331;28;20070;-83
2022/03/13 07:18:32;;;;;;;21.35;11.10;;;7.50;99.90;;;;;;5059235;28;20043;-83
2022/03/13 07:20:58;;;;;;;21.60;11.33;;;7.50;99.90;;;;;;5057129;28;20043;-84
2022/03/13 07:23:24;;;;;;;19.67;10.77;;;7.50;99.90;;;;;;5058435;28;20651;-85
2022/03/13 07:25:50;;;;;;;19.92;11.07;;;7.50;99.90;;;;;;5060469;28;20046;-85
2022/03/13 07:28:17;;;;;;;21.77;11.75;;;7.50;99.90;;;;;;5075858;28;20036;-85
2022/03/13 07:30:43;;;;;;;19.17;10.43;;;7.50;99.90;;;;;;5066470;28;20110;-84
2022/03/13 07:33:08;;;;;;;22.52;11.02;;;7.50;99.90;;;;;;5057808;28;20031;-83
2022/03/13 07:35:34;;;;;;;18.43;11.40;;;7.50;99.90;;;;;;5036332;28;20112;-83
2022/03/13 07:37:59;;;;;;;21.27;10.83;;;7.60;99.90;;;;;;5036910;28;20051;-85
2022/03/13 07:40:25;;;;;;;19.43;10.50;;;7.60;99.90;;;;;;5040109;28;20048;-81
2022/03/13 07:42:50;;;;;;;19.23;11.20;;;7.60;99.90;;;;;;5056462;28;20043;-82
2022/03/13 07:45:19;;;;;;;19.42;10.07;;;7.70;99.90;;;;;;5065643;28;20139;-81
2022/03/13 07:47:44;;;;;;;16.57;9.90;;;7.70;99.90;;;;;;5062498;28;20040;-82
2022/03/13 07:50:10;;;;;;;24.50;11.90;;;7.70;99.90;;;;;;5056972;28;20032;-81
2022/03/13 07:52:36;;;;;;;18.73;11.20;;;7.70;99.90;;;;;;5059415;28;20302;-85
2022/03/13 07:55:02;;;;;;;16.37;10.07;;;7.80;99.90;;;;;;5042859;28;20048;-82
2022/03/13 07:57:28;;;;;;;20.50;11.27;;;7.90;99.90;;;;;;5053368;28;20032;-84
2022/03/13 07:59:54;;;;;;;16.52;10.00;;;7.90;99.90;;;;;;5055967;28;20040;-82
2022/03/13 08:02:20;;;;;;;18.40;10.70;;;7.90;99.90;;;;;;5041394;28;20504;-83
2022/03/13 08:04:48;;;;;;;21.13;11.10;;;7.90;99.90;;;;;;5058524;28;20036;-83
2022/03/13 08:07:14;;;;;;;20.50;10.63;;;8.00;99.90;;;;;;5074371;28;20540;-81
2022/03/13 08:09:39;;;;;;;21.80;10.60;;;8.00;99.90;;;;;;5063256;28;20040;-84
2022/03/13 08:12:05;;;;;;;17.57;9.90;;;8.10;99.90;;;;;;5054578;28;20071;-80
2022/03/13 08:14:31;;;;;;;17.27;9.85;;;8.10;99.90;;;;;;5055404;28;20040;-84
2022/03/13 08:16:57;;;;;;;16.80;9.80;;;8.10;99.90;;;;;;5051014;28;20043;-83
2022/03/13 08:19:25;;;;;;;18.10;9.90;;;8.20;99.90;;;;;;5051327;28;20043;-81
2022/03/13 08:21:54;;;;;;;14.17;9.03;;;8.20;99.90;;;;;;5047192;28;20119;-80
2022/03/13 08:24:20;;;;;;;15.98;9.90;;;8.30;99.90;;;;;;5058431;28;20043;-82
2022/03/13 08:26:46;;;;;;;;;;;8.30;99.30;;;;;;5069842;28;20032;-82
2022/03/13 08:29:11;;;;;;;19.35;9.88;;;8.30;97.40;;;;;;5059259;28;19920;-83
2022/03/13 08:31:38;;;;;;;15.50;9.00;;;8.40;98.80;;;;;;5060248;28;20040;-86
2022/03/13 08:34:09;;;;;;;18.00;9.77;;;8.40;98.20;;;;;;5054564;28;20044;-82
2022/03/13 08:36:40;;;;;;;16.20;9.13;;;8.50;97.90;;;;;;5054463;28;20063;-84
2022/03/13 08:39:07;;;;;;;17.38;9.25;;;8.60;98.00;;;;;;5052728;28;20036;-84
2022/03/13 08:41:33;;;;;;;18.75;11.15;;;8.60;97.20;;;;;;5060072;28;20028;-83
2022/03/13 08:43:59;;;;;;;18.52;9.18;;;8.70;96.30;;;;;;5057440;28;20050;-81
2022/03/13 08:46:27;;;;;;;15.63;8.77;;;8.80;95.20;;;;;;5072908;28;20234;-82
2022/03/13 08:48:52;;;;;;;14.07;8.40;;;8.90;95.90;;;;;;5041917;28;20548;-83
2022/03/13 08:51:19;;;;;;;15.50;8.83;;;9.10;95.50;;;;;;5059659;28;20041;-82
2022/03/13 08:53:45;;;;;;;15.23;8.57;;;9.20;93.10;;;;;;5040225;28;20084;-81
2022/03/13 08:56:13;;;;;;;18.30;9.17;;;9.30;93.10;;;;;;5071806;28;20554;-84
2022/03/13 08:58:40;;;;;;;14.38;8.50;;;9.40;91.00;;;;;;5034051;28;20035;-83
2022/03/13 09:01:06;;;;;;;16.50;9.40;;;9.60;90.10;;;;;;5075591;28;20429;-80
2022/03/13 09:03:32;;;;;;;14.53;8.43;;;9.70;90.10;;;;;;5061088;28;20050;-83
2022/03/13 09:05:57;;;;;;;15.90;8.83;;;9.80;89.80;;;;;;5054828;28;20566;-85
2022/03/13 09:08:23;;;;;;;17.80;9.23;;;9.90;87.10;;;;;;5064115;28;20035;-83
2022/03/13 09:10:48;;;;;;;13.37;8.47;;;10.00;88.70;;;;;;5055681;28;20071;-81
2022/03/13 09:13:15;;;;;;;16.40;9.27;;;10.00;87.50;;;;;;5056923;28;20057;-81
2022/03/13 09:15:41;;;;;;;;;;;10.10;84.10;;;;;;5078966;28;20557;-83
2022/03/13 09:18:07;;;;;;;17.65;8.60;;;10.20;83.00;;;;;;5042696;28;20353;-84
2022/03/13 09:20:33;;;;;;;15.43;8.70;;;10.30;83.90;;;;;;5076213;28;20504;-82
2022/03/13 09:22:58;;;;;;;18.73;9.73;;;10.40;81.20;;;;;;5056185;28;20680;-81
2022/03/13 09:25:24;;;;;;;16.63;9.20;;;10.50;80.10;;;;;;5059221;28;20064;-83
2022/03/13 09:27:52;;;;;;;14.85;8.93;;;10.60;79.20;;;;;;5061214;28;20046;-81
2022/03/13 09:30:18;;;;;;;13.45;8.15;;;10.70;76.70;;;;;;5060842;28;20380;-82
2022/03/13 09:32:44;;;;;;;17.88;9.52;;;11.00;77.10;;;;;;5055330;28;20558;-83
2022/03/13 09:35:11;;;;;;;16.08;9.68;;;11.20;74.00;;;;;;5062953;28;20283;-83
2022/03/13 09:37:39;;;;;;;15.55;9.27;;;11.30;74.30;;;;;;5064924;28;20036;-82
2022/03/13 09:40:05;;;;;;;15.35;9.32;;;11.50;72.60;;;;;;5052813;28;20040;-83
2022/03/13 09:42:31;;;;;;;15.15;8.68;;;11.60;72.10;;;;;;5032298;28;20506;-83
2022/03/13 09:45:02;;;;;;;14.43;8.83;;;11.70;72.40;;;;;;5061366;28;20480;-83
2022/03/13 09:47:31;;;;;;;14.77;9.05;;;11.80;71.70;;;;;;5044486;28;20056;-82
2022/03/13 09:49:56;;;;;;;16.52;9.05;;;11.90;71.30;;;;;;5078163;28;20067;-83
2022/03/13 09:52:22;;;;;;;15.27;9.07;;;12.00;70.60;;;;;;5060408;28;20044;-83
2022/03/13 09:54:47;;;;;;;15.93;9.27;;;12.10;69.90;;;;;;5060734;28;20092;-81
2022/03/13 09:57:14;;;;;;;15.80;9.63;;;12.20;69.60;;;;;;5053417;28;20349;-84
2022/03/13 09:59:40;;;;;;;;;;;12.20;67.90;;;;;;5053542;28;20377;-82
2022/03/13 10:02:07;;;;;;;17.02;8.90;;;12.30;65.20;;;;;;5064246;28;19920;-84
2022/03/13 10:04:34;;;;;;;17.13;8.88;;;12.40;67.20;;;;;;5082722;28;20054;-83
2022/03/13 10:07:06;;;;;;;16.45;9.30;;;12.50;66.70;;;;;;5075809;28;20032;-83
2022/03/13 10:09:33;;;;;;;15.25;9.10;;;12.60;65.90;;;;;;5047312;28;20044;-82
2022/03/13 10:12:03;;;;;;;;;;;12.70;65.80;;;;;;5073553;28;20195;-82
2022/03/13 10:14:28;;;;;;;16.60;9.13;;;12.80;64.00;;;;;;5078512;28;20310;-83
2022/03/13 10:16:54;;;;;;;16.00;9.77;;;12.90;65.80;;;;;;5078791;28;20551;-84
2022/03/13 10:19:19;;;;;;;20.40;9.60;;;13.00;65.00;;;;;;5059205;28;20512;-85
2022/03/13 10:22:01;;;;;;;16.93;8.97;;;13.10;64.70;;;;;;5045145;28;20044;-81
2022/03/13 10:24:27;;;;;;;16.13;9.27;;;13.40;63.10;;;;;;5036650;28;20055;-84
2022/03/13 10:27:12;;;;;;;17.15;9.50;;;13.40;62.40;;;;;;5057134;28;20496;-80
2022/03/13 10:29:38;;;;;;;17.95;9.57;;;13.60;61.00;;;;;;5058690;28;20824;-84
2022/03/13 10:32:05;;;;;;;13.73;9.15;;;13.70;61.50;;;;;;5062324;28;20052;-84
2022/03/13 10:34:34;;;;;;;17.40;9.38;;;13.90;60.90;;;;;;5048366;28;20036;-84
2022/03/13 10:37:03;;;;;;;15.15;8.95;;;14.00;59.60;;;;;;5066397;28;20730;-81
2022/03/13 10:39:30;;;;;;;14.32;8.40;;;14.10;59.80;;;;;;5043194;28;20151;-83
2022/03/13 10:42:00;;;;;;;16.58;9.43;;;14.30;59.90;;;;;;5059825;28;20042;-84
2022/03/13 10:44:27;;;;;;;17.25;10.23;;;14.40;59.00;;;;;;5042020;28;20108;-83
2022/03/13 10:46:58;;;;;;;16.88;8.82;;;14.60;57.70;;;;;;5062375;28;20457;-82
2022/03/13 10:49:45;;;;;;;15.95;9.02;;;14.80;58.00;;;;;;5059821;28;20044;-83
2022/03/13 10:52:29;;;;;;;16.42;9.57;;;14.90;56.40;;;;;;5057149;28;20234;-81
2022/03/13 10:54:56;;;;;;;15.23;9.90;;;15.00;56.00;;;;;;5057608;28;20115;-83
2022/03/13 10:57:22;;;;;;;15.90;9.25;;;15.00;56.90;;;;;;5070924;28;20036;-84
2022/03/13 11:00:08;;;;;;;13.88;8.65;;;15.00;56.70;;;;;;5066597;28;20042;-84
2022/03/13 11:02:33;;;;;;;17.90;9.75;;;15.10;57.00;;;;;;5043387;28;20209;-87
2022/03/13 11:05:00;;;;;;;13.27;9.20;;;15.10;56.80;;;;;;5056075;28;20122;-85
2022/03/13 11:07:27;;;;;;;;;;;15.10;56.10;;;;;;5061129;28;20513;-82
2022/03/13 11:09:54;;;;;;;18.17;9.63;;;15.00;54.70;;;;;;5063457;28;20070;-85
2022/03/13 11:12:20;;;;;;;15.05;9.82;;;15.10;56.50;;;;;;5042726;28;20263;-83
2022/03/13 11:14:54;;;;;;;18.27;9.80;;;15.20;56.50;;;;;;5055128;28;20040;-81
2022/03/13 11:17:28;;;;;;;16.75;9.68;;;15.30;56.30;;;;;;5055461;28;20078;-82
2022/03/13 11:19:58;;;;;;;15.80;9.38;;;15.30;56.00;;;;;;5034866;28;20491;-84
2022/03/13 11:22:25;;;;;;;16.55;9.77;;;15.30;56.70;;;;;;5037047;28;20040;-80
2022/03/13 11:24:54;;;;;;;16.50;10.18;;;15.40;56.50;;;;;;5057500;28;20113;-82
2022/03/13 11:27:20;;;;;;;16.70;9.43;;;15.50;56.40;;;;;;5055494;28;20115;-83
2022/03/13 11:29:53;;;;;;;15.63;9.90;;;15.70;56.00;;;;;;5067761;28;20430;-83
2022/03/13 11:32:40;;;;;;;16.90;9.15;;;15.80;55.30;;;;;;5051853;28;20159;-83
2022/03/13 11:35:18;;;;;;;17.20;9.52;;;15.80;55.10;;;;;;5050783;28;20294;-83
2022/03/13 11:38:14;;;;;;;15.65;9.75;;;15.90;54.70;;;;;;5048066;28;20033;-84
2022/03/13 11:40:40;;;;;;;17.77;9.88;;;15.80;54.10;;;;;;5050493;28;20399;-80
2022/03/13 11:43:10;;;;;;;16.20;9.60;;;15.70;54.70;;;;;;5054544;28;20070;-82
2022/03/13 11:45:39;;;;;;;15.52;9.85;;;15.70;55.30;;;;;;5059062;28;20044;-82
2022/03/13 11:48:05;;;;;;;16.85;9.85;;;15.70;55.40;;;;;;5037769;28;20044;-85
2022/03/13 11:50:58;;;;;;;16.43;10.33;;;15.80;55.80;;;;;;5052794;28;20097;-82
2022/03/13 11:53:44;;;;;;;16.30;9.95;;;16.00;55.30;;;;;;5077204;28;20048;-86
2022/03/13 11:56:20;;;;;;;16.17;9.25;;;16.20;53.50;;;;;;5038547;28;20055;-84
2022/03/13 11:58:51;;;;;;;21.42;10.75;;;16.30;54.40;;;;;;5052079;28;20044;-83
2022/03/13 12:01:20;;;;;;;16.48;9.88;;;16.40;54.40;;;;;;5055411;28;20470;-84
2022/03/13 12:04:01;;;;;;;15.88;9.23;;;16.50;54.20;;;;;;5060298;28;20031;-83
2022/03/13 12:06:41;;;;;;;13.02;8.27;;;16.70;53.80;;;;;;5055891;28;20480;-81
2022/03/13 12:09:08;;;;;;;13.48;8.60;;;16.70;53.20;;;;;;5055878;28;20407;-81
2022/03/13 12:11:46;;;;;;;16.70;10.00;;;16.50;53.40;;;;;;5052330;28;20505;-82
2022/03/13 12:14:17;;;;;;;14.43;8.77;;;16.50;54.00;;;;;;5052884;28;20046;-79
2022/03/13 12:16:44;;;;;;;13.65;8.43;;;16.50;53.60;;;;;;5058315;28;20039;-80
2022/03/13 12:19:10;;;;;;;14.38;8.82;;;16.60;53.80;;;;;;5057654;28;20067;-81
2022/03/13 12:21:37;;;;;;;15.13;8.90;;;16.60;54.30;;;;;;5038240;28;20143;-81
2022/03/13 12:24:15;;;;;;;15.02;9.27;;;16.70;54.20;;;;;;5040252;28;21358;-81
2022/03/13 12:26:42;;;;;;;15.20;9.05;;;16.60;53.50;;;;;;5053522;28;20159;-81
2022/03/13 12:29:08;;;;;;;15.52;9.13;;;16.70;54.00;;;;;;5050903;28;20036;-81
2022/03/13 12:31:41;;;;;;;12.80;8.73;;;16.70;54.30;;;;;;5061068;28;20044;-86
2022/03/13 12:34:07;;;;;;;15.05;9.07;;;16.80;54.40;;;;;;5037282;28;20098;-86
2022/03/13 12:36:37;;;;;;;14.32;8.88;;;16.80;54.80;;;;;;5043526;28;20086;-81
2022/03/13 12:39:14;;;;;;;12.15;7.40;;;16.80;54.70;;;;;;5057394;28;20288;-80
2022/03/13 12:41:44;;;;;;;10.95;7.03;;;16.80;54.00;;;;;;4990232;28;20218;-79
2022/03/13 12:44:20;;;;;;;14.13;8.38;;;16.80;54.00;;;;;;4947207;28;20766;-83
2022/03/13 12:46:51;;;;;;;13.27;7.97;;;17.00;54.00;;;;;;4951992;28;20353;-82
2022/03/13 12:49:18;;;;;;;14.65;7.82;;;17.10;54.00;;;;;;5037992;28;20119;-81
2022/03/13 12:51:46;;;;;;;13.35;7.82;;;17.30;53.50;;;;;;5060919;28;20043;-82
2022/03/13 12:54:13;;;;;;;16.27;8.85;;;17.40;53.30;;;;;;5039192;28;20576;-78
2022/03/13 12:56:45;;;;;;;17.73;8.38;;;17.50;53.50;;;;;;5047524;28;20387;-80
2022/03/13 12:59:41;;;;;;;13.48;7.72;;;17.80;53.10;;;;;;5037022;28;20638;-80
2022/03/13 13:02:18;;;;;;;12.60;7.57;;;17.90;51.70;;;;;;5022585;28;20048;-80
2022/03/13 13:04:48;;;;;;;12.60;8.02;;;18.00;50.70;;;;;;5015100;28;20562;-79
2022/03/13 13:07:15;;;;;;;13.77;8.23;;;18.00;51.30;;;;;;5042600;28;20044;-81
2022/03/13 13:09:43;;;;;;;12.30;7.60;;;18.00;51.00;;;;;;5059995;28;20039;-81
2022/03/13 13:12:10;;;;;;;14.75;8.55;;;18.10;50.70;;;;;;5056290;28;20100;-81
2022/03/13 13:14:37;;;;;;;13.65;7.85;;;18.10;50.60;;;;;;5063902;28;20037;-81
2022/03/13 13:17:11;;;;;;;12.85;7.82;;;18.20;50.70;;;;;;5060985;28;20441;-81
2022/03/13 13:19:39;;;;;;;11.32;6.93;;;18.30;50.20;;;;;;5048566;28;20162;-80